createdAt,value
2022-12-27T00:00:01.515Z,4.47
2022-12-27T00:02:28.215Z,4.28
2022-12-27T00:04:54.903Z,3.65
2022-12-27T00:07:21.399Z,2.80
2022-12-27T00:09:47.929Z,1.52
2022-12-27T00:12:14.469Z,1.95
2022-12-27T00:14:41.003Z,4.50
2022-12-27T00:17:07.605Z,4.93
2022-12-27T00:19:34.154Z,7.07
2022-12-27T00:22:01.183Z,3.63
2022-12-27T00:24:27.752Z,7.38
2022-12-27T00:26:54.267Z,4.00
2022-12-27T00:29:21.072Z,2.20
2022-12-27T00:31:47.646Z,3.33
2022-12-27T00:34:14.319Z,7.85
2022-12-27T00:36:40.851Z,4.32
2022-12-27T00:39:07.422Z,3.05
2022-12-27T00:41:34.096Z,2.72
2022-12-27T00:44:00.711Z,4.03
2022-12-27T00:46:27.415Z,7.70
2022-12-27T00:48:55.296Z,4.05
2022-12-27T00:51:24.604Z,9.52
2022-12-27T00:53:52.244Z,3.90
2022-12-27T00:56:28.280Z,6.13
2022-12-27T00:59:02.773Z,14.60
2022-12-27T01:01:32.080Z,8.00
2022-12-27T01:03:59.098Z,11.23
2022-12-27T01:06:32.143Z,9.90
2022-12-27T01:08:59.972Z,8.88
2022-12-27T01:11:28.421Z,11.52
2022-12-27T01:14:00.775Z,8.23
2022-12-27T01:16:28.968Z,5.55
2022-12-27T01:18:55.674Z,4.35
2022-12-27T01:21:25.037Z,4.10
2022-12-27T01:23:51.905Z,3.63
2022-12-27T01:26:20.931Z,3.50
2022-12-27T01:28:47.866Z,3.53
2022-12-27T01:31:17.098Z,4.57
2022-12-27T01:33:43.939Z,1.67
2022-12-27T01:36:16.489Z,3.63
2022-12-27T01:38:43.268Z,2.63
2022-12-27T01:41:37.627Z,3.55
2022-12-27T01:44:35.091Z,4.43
2022-12-27T01:47:03.446Z,4.22
2022-12-27T01:49:30.194Z,1.80
2022-12-27T01:51:56.786Z,4.28
2022-12-27T01:54:23.945Z,4.47
2022-12-27T01:56:50.685Z,2.45
2022-12-27T01:59:17.545Z,5.38
2022-12-27T02:01:47.833Z,4.22
2022-12-27T02:04:17.802Z,2.67
2022-12-27T02:06:46.225Z,1.60
2022-12-27T02:09:26.356Z,3.50
2022-12-27T02:11:56.794Z,3.72
2022-12-27T02:14:34.113Z,5.13
2022-12-27T02:17:04.595Z,3.92
2022-12-27T02:20:04.659Z,3.75
2022-12-27T02:23:02.006Z,3.80
2022-12-27T02:25:31.158Z,1.45
2022-12-27T02:28:35.549Z,1.55
2022-12-27T02:31:18.054Z,2.97
2022-12-27T02:33:48.695Z,3.35
2022-12-27T02:36:26.293Z,2.70
2022-12-27T02:38:57.435Z,4.43
2022-12-27T02:41:43.267Z,7.53
2022-12-27T02:44:29.885Z,4.10
2022-12-27T02:47:15.293Z,6.45
2022-12-27T02:50:02.034Z,4.82
2022-12-27T02:53:04.323Z,4.13
2022-12-27T02:56:26.372Z,2.55
2022-12-27T02:59:13.801Z,5.15
2022-12-27T03:02:16.014Z,3.75
2022-12-27T03:05:11.114Z,5.00
2022-12-27T03:08:01.046Z,3.53
2022-12-27T03:11:09.116Z,4.07
2022-12-27T03:14:09.759Z,1.85
2022-12-27T03:16:56.605Z,5.68
2022-12-27T03:19:59.935Z,3.75
2022-12-27T03:22:48.369Z,4.40
2022-12-27T03:25:28.893Z,1.85
2022-12-27T03:28:22.125Z,4.25
2022-12-27T03:31:12.381Z,4.63
2022-12-27T03:33:41.470Z,7.43
2022-12-27T03:36:34.802Z,2.70
2022-12-27T03:39:28.288Z,1.63
2022-12-27T03:42:21.476Z,3.85
2022-12-27T03:44:48.289Z,5.18
2022-12-27T03:47:47.892Z,3.20
2022-12-27T03:50:25.593Z,3.85
2022-12-27T03:52:59.852Z,6.60
2022-12-27T03:55:33.022Z,3.42
2022-12-27T03:58:00.108Z,3.85
2022-12-27T04:00:26.688Z,3.72
2022-12-27T04:02:53.269Z,3.88
2022-12-27T04:05:19.878Z,4.60
2022-12-27T04:08:04.952Z,2.20
2022-12-27T04:10:49.880Z,1.48
2022-12-27T04:13:35.327Z,4.05
2022-12-27T04:16:20.926Z,5.68
2022-12-27T04:19:06.039Z,2.00
2022-12-27T04:21:50.881Z,1.83
2022-12-27T04:24:35.730Z,2.55
2022-12-27T04:27:20.532Z,3.70
2022-12-27T04:30:05.469Z,4.22
2022-12-27T04:32:50.435Z,2.50
2022-12-27T04:35:16.943Z,5.32
2022-12-27T04:37:43.429Z,8.65
2022-12-27T04:40:28.824Z,11.40
2022-12-27T04:43:14.355Z,25.45
2022-12-27T04:45:59.427Z,34.45
2022-12-27T04:48:48.395Z,8.73
2022-12-27T04:51:34.054Z,12.45
2022-12-27T04:54:19.342Z,12.48
2022-12-27T04:56:45.876Z,11.02
2022-12-27T04:59:31.140Z,13.40
2022-12-27T05:02:03.889Z,8.60
2022-12-27T05:04:32.941Z,8.80
2022-12-27T05:07:19.736Z,6.35
2022-12-27T05:10:05.207Z,8.80
2022-12-27T05:12:50.449Z,7.55
2022-12-27T05:15:17.014Z,9.88
2022-12-27T05:17:43.554Z,6.88
2022-12-27T05:20:10.784Z,5.88
2022-12-27T05:22:55.888Z,4.72
2022-12-27T05:25:38.411Z,7.78
2022-12-27T05:28:06.569Z,11.07
2022-12-27T05:30:34.551Z,25.35
2022-12-27T05:33:01.165Z,27.55
2022-12-27T05:35:27.804Z,32.75
2022-12-27T05:37:57.619Z,50.78
2022-12-27T05:40:24.742Z,94.32
2022-12-27T05:42:51.680Z,19.70
2022-12-27T05:45:18.731Z,12.68
2022-12-27T05:47:45.222Z,15.35
2022-12-27T05:50:12.099Z,14.55
2022-12-27T05:52:41.188Z,9.18
2022-12-27T05:55:08.590Z,10.45
2022-12-27T05:57:35.767Z,13.05
2022-12-27T06:00:03.454Z,10.35
2022-12-27T06:02:39.454Z,10.68
2022-12-27T06:05:06.299Z,5.15
2022-12-27T06:07:32.821Z,8.80
2022-12-27T06:09:59.325Z,6.05
2022-12-27T06:12:25.885Z,4.90
2022-12-27T06:14:52.361Z,2.50
2022-12-27T06:17:18.910Z,2.95
2022-12-27T06:19:45.498Z,1.85
2022-12-27T06:22:11.998Z,2.17
2022-12-27T06:24:38.482Z,4.70
2022-12-27T06:27:05.003Z,8.10
2022-12-27T06:29:31.503Z,5.43
2022-12-27T06:31:58.094Z,6.13
2022-12-27T06:34:24.635Z,3.65
2022-12-27T06:36:51.413Z,6.03
2022-12-27T06:39:19.073Z,3.55
2022-12-27T06:41:45.926Z,8.20
2022-12-27T06:44:12.464Z,7.05
2022-12-27T06:46:39.008Z,8.13
2022-12-27T06:49:05.514Z,3.88
2022-12-27T06:51:33.847Z,5.65
2022-12-27T06:54:00.394Z,5.47
2022-12-27T06:56:26.922Z,5.03
2022-12-27T06:58:54.450Z,7.30
2022-12-27T07:01:23.694Z,5.95
2022-12-27T07:03:55.066Z,10.77
2022-12-27T07:06:23.665Z,16.90
2022-12-27T07:08:51.459Z,10.40
2022-12-27T07:11:19.703Z,9.63
2022-12-27T07:13:49.778Z,12.35
2022-12-27T07:16:19.999Z,9.82
2022-12-27T07:18:49.671Z,9.07
2022-12-27T07:21:20.546Z,13.00
2022-12-27T07:23:47.150Z,9.07
2022-12-27T07:26:19.523Z,4.65
2022-12-27T07:28:46.438Z,6.40
2022-12-27T07:31:20.085Z,10.93
2022-12-27T07:33:47.041Z,13.68
2022-12-27T07:36:17.301Z,7.82
2022-12-27T07:38:44.308Z,9.38
2022-12-27T07:41:12.227Z,8.75
2022-12-27T07:43:38.918Z,6.00
2022-12-27T07:46:08.551Z,11.52
2022-12-27T07:48:35.628Z,10.00
2022-12-27T07:51:02.472Z,12.48
2022-12-27T07:53:29.558Z,20.63
2022-12-27T07:55:56.668Z,11.45
2022-12-27T07:58:24.498Z,11.05
2022-12-27T08:00:52.364Z,10.13
2022-12-27T08:03:19.329Z,13.60
2022-12-27T08:05:52.380Z,13.55
2022-12-27T08:08:22.934Z,9.20
2022-12-27T08:10:49.644Z,13.48
2022-12-27T08:13:16.219Z,22.17
2022-12-27T08:15:43.823Z,12.32
2022-12-27T08:18:10.514Z,10.35
2022-12-27T08:20:37.139Z,9.45
2022-12-27T08:23:03.915Z,8.48
2022-12-27T08:25:31.201Z,16.92
2022-12-27T08:28:11.297Z,20.58
2022-12-27T08:30:39.798Z,9.70
2022-12-27T08:33:07.016Z,21.08
2022-12-27T08:35:52.064Z,21.23
2022-12-27T08:38:19.706Z,22.80
2022-12-27T08:40:46.342Z,25.98
2022-12-27T08:43:14.239Z,17.50
2022-12-27T08:45:40.810Z,10.40
2022-12-27T08:48:07.799Z,7.22
2022-12-27T08:50:34.532Z,9.30
2022-12-27T08:53:03.569Z,8.57
2022-12-27T08:55:30.911Z,13.52
2022-12-27T08:57:58.043Z,11.20
2022-12-27T09:00:25.677Z,8.02
2022-12-27T09:02:55.794Z,6.07
2022-12-27T09:05:23.681Z,7.18
2022-12-27T09:07:50.688Z,6.30
2022-12-27T09:10:18.270Z,7.03
2022-12-27T09:12:46.063Z,8.57
2022-12-27T09:15:12.655Z,8.43
2022-12-27T09:17:39.723Z,5.97
2022-12-27T09:20:07.823Z,3.80
2022-12-27T09:22:34.616Z,2.78
2022-12-27T09:25:01.178Z,3.22
2022-12-27T09:27:27.972Z,5.13
2022-12-27T09:29:54.529Z,4.03
2022-12-27T09:32:21.143Z,4.82
2022-12-27T09:34:47.789Z,2.83
2022-12-27T09:37:14.301Z,2.92
2022-12-27T09:39:43.839Z,9.40
2022-12-27T09:43:00.778Z,4.95
2022-12-27T09:45:38.183Z,3.83
2022-12-27T09:48:14.746Z,4.38
2022-12-27T09:51:05.644Z,2.55
2022-12-27T09:53:51.937Z,3.38
2022-12-27T09:56:35.662Z,16.15
2022-12-27T09:59:33.140Z,14.65
2022-12-27T10:01:59.840Z,13.98
2022-12-27T10:05:09.979Z,9.10
2022-12-27T10:08:01.016Z,13.05
2022-12-27T10:11:02.841Z,9.40
2022-12-27T10:14:22.276Z,10.20
2022-12-27T10:16:58.139Z,8.05
2022-12-27T10:19:49.482Z,12.23
2022-12-27T10:22:42.742Z,10.23
2022-12-27T10:25:15.570Z,11.23
2022-12-27T10:27:42.208Z,11.45
2022-12-27T10:30:18.314Z,11.85
2022-12-27T10:32:45.311Z,11.52
2022-12-27T10:35:16.303Z,9.20
2022-12-27T10:37:44.184Z,9.23
2022-12-27T10:40:20.287Z,7.72
2022-12-27T10:43:03.767Z,7.05
2022-12-27T10:45:39.419Z,5.20
2022-12-27T10:49:02.720Z,8.93
2022-12-27T10:51:27.316Z,8.48
2022-12-27T10:54:11.386Z,7.72
2022-12-27T10:56:41.431Z,7.18
2022-12-27T10:59:12.468Z,7.38
2022-12-27T11:01:51.089Z,8.82
2022-12-27T11:04:23.414Z,8.77
2022-12-27T11:07:17.235Z,8.10
2022-12-27T11:09:50.717Z,6.35
2022-12-27T11:12:32.257Z,6.10
2022-12-27T11:15:15.618Z,5.50
2022-12-27T11:17:55.360Z,6.05
2022-12-27T11:20:26.358Z,5.93
2022-12-27T11:23:03.899Z,5.70
2022-12-27T11:25:31.387Z,6.55
2022-12-27T11:28:01.211Z,5.78
2022-12-27T11:30:34.464Z,5.43
2022-12-27T11:33:21.048Z,7.82
2022-12-27T11:35:54.244Z,7.35
2022-12-27T11:38:29.299Z,6.35
2022-12-27T11:41:23.229Z,7.53
2022-12-27T11:44:03.906Z,6.00
2022-12-27T11:46:58.993Z,9.00
2022-12-27T11:49:44.563Z,4.53
2022-12-27T11:53:02.427Z,2.60
2022-12-27T11:56:05.176Z,10.13
2022-12-27T11:59:01.703Z,5.25
2022-12-27T12:01:55.559Z,6.20
2022-12-27T12:04:55.427Z,4.88
2022-12-27T12:07:40.129Z,4.70
2022-12-27T12:10:21.871Z,9.48
2022-12-27T12:13:13.298Z,3.35
2022-12-27T12:16:11.749Z,4.72
2022-12-27T12:19:10.814Z,5.65
2022-12-27T12:22:09.920Z,2.33
2022-12-27T12:24:42.021Z,2.67
2022-12-27T12:27:50.272Z,2.95
2022-12-27T12:30:40.997Z,3.85
2022-12-27T12:33:38.553Z,3.53
2022-12-27T12:36:30.598Z,4.50
2022-12-27T12:39:15.237Z,4.43
2022-12-27T12:42:00.513Z,3.88
2022-12-27T12:44:41.772Z,4.35
2022-12-27T12:47:25.045Z,5.13
2022-12-27T12:50:05.481Z,4.90
2022-12-27T12:53:00.463Z,2.10
2022-12-27T12:55:48.729Z,5.63
2022-12-27T12:58:30.816Z,4.22
2022-12-27T13:01:31.430Z,4.75
2022-12-27T13:04:36.540Z,5.07
2022-12-27T13:07:15.142Z,2.90
2022-12-27T13:09:59.450Z,3.50
2022-12-27T13:12:50.518Z,3.70
2022-12-27T13:18:26.595Z,4.43
2022-12-27T13:21:09.368Z,2.58
2022-12-27T13:24:02.022Z,4.55
2022-12-27T13:26:56.078Z,4.72
2022-12-27T13:29:37.713Z,4.35
2022-12-27T13:32:20.831Z,7.82
2022-12-27T13:35:20.006Z,3.33
2022-12-27T13:38:03.771Z,3.65
2022-12-27T13:41:00.905Z,2.35
2022-12-27T13:43:58.771Z,4.55
2022-12-27T13:46:42.070Z,4.82
2022-12-27T13:49:30.455Z,3.55
2022-12-27T13:52:12.083Z,6.15
2022-12-27T13:54:52.947Z,4.25
2022-12-27T13:58:07.488Z,3.95
2022-12-27T14:00:54.138Z,3.13
2022-12-27T14:03:44.661Z,2.22
2022-12-27T14:06:17.545Z,3.92
2022-12-27T14:09:02.322Z,2.28
2022-12-27T14:11:50.842Z,4.63
2022-12-27T14:14:19.001Z,2.00
2022-12-27T14:17:10.540Z,2.20
2022-12-27T14:20:08.003Z,2.28
2022-12-27T14:22:43.676Z,5.13
2022-12-27T14:25:25.451Z,4.30
2022-12-27T14:28:06.474Z,2.42
2022-12-27T14:31:03.553Z,4.70
2022-12-27T14:34:07.081Z,3.92
2022-12-27T14:36:42.600Z,5.07
2022-12-27T14:39:26.601Z,5.93
2022-12-27T14:42:05.385Z,2.42
2022-12-27T14:45:17.852Z,2.55
2022-12-27T14:48:24.117Z,3.75
2022-12-27T14:51:59.240Z,2.67
2022-12-27T14:54:50.864Z,5.10
2022-12-27T14:57:33.206Z,3.83
2022-12-27T15:00:04.236Z,2.33
2022-12-27T15:02:46.241Z,2.38
2022-12-27T15:05:19.058Z,4.07
2022-12-27T15:08:00.665Z,4.43
2022-12-27T15:10:36.246Z,4.00
2022-12-27T15:13:41.533Z,2.25
2022-12-27T15:16:21.171Z,5.30
2022-12-27T15:18:59.920Z,5.22
2022-12-27T15:21:36.995Z,3.50
2022-12-27T15:24:41.916Z,8.25
2022-12-27T15:27:27.519Z,4.22
2022-12-27T15:30:02.952Z,3.95
2022-12-27T15:32:48.251Z,3.38
2022-12-27T15:35:44.547Z,3.22
2022-12-27T15:38:54.030Z,5.55
2022-12-27T15:41:22.985Z,4.03
2022-12-27T15:44:07.064Z,3.13
2022-12-27T15:46:42.557Z,3.58
2022-12-27T15:49:20.235Z,8.52
2022-12-27T15:52:08.427Z,4.25
2022-12-27T15:54:46.473Z,3.13
2022-12-27T16:00:14.401Z,6.18
2022-12-27T16:02:43.983Z,4.07
2022-12-27T16:05:33.418Z,15.05
2022-12-27T16:07:59.848Z,25.63
2022-12-27T16:10:32.315Z,6.97
2022-12-27T16:13:04.884Z,7.82
2022-12-27T16:15:34.504Z,12.98
2022-12-27T16:18:02.463Z,14.38
2022-12-27T16:20:30.136Z,14.15
2022-12-27T16:23:06.123Z,16.42
2022-12-27T16:25:37.954Z,18.67
2022-12-27T16:28:21.644Z,8.52
2022-12-27T16:30:53.789Z,15.15
2022-12-27T16:33:26.006Z,11.80
2022-12-27T16:36:11.325Z,7.68
2022-12-27T16:38:44.970Z,22.23
2022-12-27T16:41:32.437Z,9.80
2022-12-27T16:44:01.858Z,7.88
2022-12-27T16:46:56.178Z,12.38
2022-12-27T16:49:28.559Z,9.63
2022-12-27T16:52:13.427Z,11.00
2022-12-27T16:55:02.747Z,12.45
2022-12-27T16:57:37.514Z,12.45
2022-12-27T17:00:11.373Z,38.15
2022-12-27T17:02:40.985Z,28.02
2022-12-27T17:05:28.012Z,25.90
2022-12-27T17:07:55.216Z,22.60
2022-12-27T17:10:27.818Z,21.38
2022-12-27T17:13:00.626Z,41.80
2022-12-27T17:15:27.662Z,15.73
2022-12-27T17:18:09.005Z,12.48
2022-12-27T17:20:38.915Z,24.38
2022-12-27T17:23:07.426Z,14.02
2022-12-27T17:25:55.008Z,12.85
2022-12-27T17:28:29.714Z,17.35
2022-12-27T17:31:22.665Z,14.75
2022-12-27T17:34:04.233Z,12.73
2022-12-27T17:36:58.125Z,16.88
2022-12-27T17:39:54.742Z,15.20
2022-12-27T17:43:12.039Z,20.42
2022-12-27T17:46:01.379Z,20.55
2022-12-27T17:48:32.698Z,16.40
2022-12-27T17:51:09.458Z,16.85
2022-12-27T17:54:04.326Z,14.82
2022-12-27T17:56:59.951Z,17.38
2022-12-27T17:59:29.144Z,19.92
2022-12-27T18:02:00.975Z,18.55
2022-12-27T18:04:39.524Z,16.83
2022-12-27T18:07:09.554Z,21.58
2022-12-27T18:09:59.245Z,23.70
2022-12-27T18:12:28.349Z,18.58
2022-12-27T18:15:02.749Z,15.98
2022-12-27T18:17:51.368Z,14.75
2022-12-27T18:20:30.398Z,19.15
2022-12-27T18:23:03.040Z,18.13
2022-12-27T18:25:33.934Z,19.20
2022-12-27T18:28:06.387Z,16.37
2022-12-27T18:30:38.272Z,14.77
2022-12-27T18:33:06.704Z,18.40
2022-12-27T18:35:34.210Z,13.20
2022-12-27T18:38:01.698Z,20.55
2022-12-27T18:40:28.539Z,16.25
2022-12-27T18:42:56.163Z,17.42
2022-12-27T18:45:33.282Z,16.33
2022-12-27T18:48:04.615Z,17.55
2022-12-27T18:50:34.196Z,12.45
2022-12-27T18:53:03.556Z,14.27
2022-12-27T18:55:32.056Z,11.90
2022-12-27T18:58:20.935Z,9.82
2022-12-27T19:00:59.213Z,14.73
2022-12-27T19:03:27.222Z,11.38
2022-12-27T19:06:00.957Z,10.27
2022-12-27T19:08:49.631Z,12.38
2022-12-27T19:11:29.319Z,14.90
2022-12-27T19:14:00.371Z,14.48
2022-12-27T19:16:30.036Z,9.15
2022-12-27T19:19:01.517Z,13.85
2022-12-27T19:21:38.461Z,12.02
2022-12-27T19:24:23.554Z,11.98
2022-12-27T19:26:51.207Z,8.13
2022-12-27T19:29:23.608Z,11.07
2022-12-27T19:32:04.698Z,10.98
2022-12-27T19:34:39.441Z,11.95
2022-12-27T19:37:05.971Z,9.57
2022-12-27T19:39:38.612Z,16.23
2022-12-27T19:42:14.971Z,12.20
2022-12-27T19:44:41.491Z,9.35
2022-12-27T19:47:12.329Z,13.30
2022-12-27T19:49:44.223Z,11.27
2022-12-27T19:52:17.426Z,8.13
2022-12-27T19:54:44.140Z,15.23
2022-12-27T19:57:12.514Z,12.73
2022-12-27T19:59:39.076Z,15.70
2022-12-27T20:02:06.600Z,13.23
2022-12-27T20:04:33.265Z,11.45
2022-12-27T20:07:00.219Z,17.17
2022-12-27T20:09:26.767Z,16.13
2022-12-27T20:11:53.377Z,17.42
2022-12-27T20:14:19.887Z,11.65
2022-12-27T20:16:47.505Z,8.38
2022-12-27T20:19:18.159Z,18.15
2022-12-27T20:21:44.908Z,12.40
2022-12-27T20:24:12.784Z,43.05
2022-12-27T20:26:40.355Z,15.07
2022-12-27T20:29:07.026Z,11.55
2022-12-27T20:31:35.666Z,10.65
2022-12-27T20:34:07.326Z,16.25
2022-12-27T20:36:33.871Z,20.00
2022-12-27T20:39:00.478Z,22.08
2022-12-27T20:41:27.805Z,17.85
2022-12-27T20:43:56.109Z,12.68
2022-12-27T20:46:23.081Z,14.85
2022-12-27T20:48:49.951Z,12.40
2022-12-27T20:51:22.172Z,10.85
2022-12-27T20:53:58.438Z,8.93
2022-12-27T20:56:25.567Z,12.38
2022-12-27T20:58:52.930Z,11.75
2022-12-27T21:01:25.042Z,13.68
2022-12-27T21:03:51.728Z,17.50
2022-12-27T21:06:23.125Z,15.75
2022-12-27T21:08:56.775Z,13.15
2022-12-27T21:11:27.760Z,12.68
2022-12-27T21:13:55.090Z,18.85
2022-12-27T21:16:24.788Z,24.85
2022-12-27T21:18:51.695Z,13.65
2022-12-27T21:21:21.432Z,13.43
2022-12-27T21:23:48.950Z,16.20
2022-12-27T21:26:19.051Z,17.20
2022-12-27T21:28:46.472Z,15.02
2022-12-27T21:31:14.721Z,14.30
2022-12-27T21:33:41.557Z,10.07
2022-12-27T21:36:11.737Z,12.20
2022-12-27T21:38:38.216Z,16.92
2022-12-27T21:41:17.050Z,9.20
2022-12-27T21:43:44.694Z,15.63
2022-12-27T21:46:14.607Z,32.20
2022-12-27T21:48:45.566Z,21.77
2022-12-27T21:51:17.820Z,23.50
2022-12-27T21:53:44.977Z,15.00
2022-12-27T21:56:13.069Z,17.40
2022-12-27T21:58:40.734Z,15.77
2022-12-27T22:01:11.527Z,19.55
2022-12-27T22:03:40.540Z,26.50
2022-12-27T22:06:14.485Z,19.35
2022-12-27T22:08:42.233Z,9.23
2022-12-27T22:11:09.429Z,7.18
2022-12-27T22:13:37.256Z,7.22
2022-12-27T22:16:06.337Z,8.70
2022-12-27T22:18:36.751Z,5.03
2022-12-27T22:21:07.485Z,7.40
2022-12-27T22:23:37.049Z,9.25
2022-12-27T22:26:04.487Z,9.45
2022-12-27T22:28:31.179Z,23.05
2022-12-27T22:30:57.767Z,11.38
2022-12-27T22:33:25.341Z,12.27
2022-12-27T22:35:51.877Z,10.80
2022-12-27T22:38:18.387Z,13.52
2022-12-27T22:40:46.733Z,11.00
2022-12-27T22:43:13.692Z,8.52
2022-12-27T22:45:42.250Z,17.30
2022-12-27T22:48:08.782Z,12.52
2022-12-27T22:50:38.002Z,9.60
2022-12-27T22:53:04.784Z,7.60
2022-12-27T22:55:31.356Z,11.30
2022-12-27T22:57:57.904Z,19.10
2022-12-27T23:00:24.390Z,15.05
2022-12-27T23:02:50.917Z,14.43
2022-12-27T23:05:17.486Z,12.15
2022-12-27T23:08:04.525Z,11.30
2022-12-27T23:10:30.501Z,8.68
2022-12-27T23:12:57.119Z,9.88
2022-12-27T23:15:23.733Z,7.00
2022-12-27T23:17:50.274Z,6.97
2022-12-27T23:20:16.820Z,6.93
2022-12-27T23:22:43.363Z,5.32
2022-12-27T23:25:09.896Z,5.72
2022-12-27T23:27:36.430Z,3.42
2022-12-27T23:30:05.255Z,4.88
2022-12-27T23:32:31.813Z,5.15
2022-12-27T23:34:58.333Z,6.43
2022-12-27T23:37:24.872Z,3.80
2022-12-27T23:39:51.470Z,2.90
2022-12-27T23:42:17.985Z,3.45
2022-12-27T23:44:44.475Z,2.50
2022-12-27T23:47:10.996Z,2.72
2022-12-27T23:49:37.477Z,1.35
2022-12-27T23:52:04.075Z,4.53
2022-12-27T23:54:30.678Z,3.22
2022-12-27T23:56:57.263Z,3.75
2022-12-27T23:59:23.767Z,2.67
